Time;durP1;ratioP1;P1;durP2;ratioP2;P2;SDS_P1;SDS_P2;PMS_P1;PMS_P2;Temp;Humidity;BMP_temperature;BMP_pressure;BME280_temperature;BME280_humidity;BME280_pressure;Samples;Min_cycle;Max_cycle;Signal;HPM_P1;HPM_P2
2023/03/24 06:47:04;;;;;;;4.07;2.65;;;;;;;16.07;nan;96258.16;5136488;27;20345;-62
2023/03/24 06:49:35;;;;;;;4.25;2.90;;;;;;;14.93;nan;96269.41;5128012;27;20040;-63
2023/03/24 06:56:42;;;;;;;6.78;3.50;;;;;;;20.92;52.83;96260.81;5060266;27;20401;-58
2023/03/24 07:02:09;;;;;;;3.97;2.70;;;;;;;14.89;65.00;96285.22;5052951;27;20705;-71
2023/03/24 07:04:40;;;;;;;4.05;2.55;;;;;;;13.62;70.53;96292.75;4980288;28;68271;-75
2023/03/24 07:07:18;;;;;;;4.10;2.83;;;;;;;13.08;73.12;96295.13;4978630;28;20061;-74
2023/03/24 07:10:27;;;;;;;4.30;2.65;;;;;;;12.76;75.05;96301.00;4973500;28;20059;-74
2023/03/24 07:12:54;;;;;;;2.70;2.05;;;;;;;12.64;76.09;96297.56;4990874;28;20043;-74
2023/03/24 07:15:22;;;;;;;2.92;2.30;;;;;;;12.63;76.28;96295.09;4986684;28;20054;-74
2023/03/24 07:17:51;;;;;;;3.65;2.15;;;;;;;12.56;76.73;96294.44;4984096;28;20082;-74
2023/03/24 07:20:29;;;;;;;4.57;3.08;;;;;;;12.55;76.65;96304.34;4976410;28;20035;-75
2023/03/24 07:23:10;;;;;;;2.75;1.90;;;;;;;12.54;76.89;96304.56;4979045;28;20105;-74
2023/03/24 07:25:56;;;;;;;3.55;2.60;;;;;;;12.55;76.50;96306.19;4985632;28;20410;-74
2023/03/24 07:28:43;;;;;;;4.68;2.63;;;;;;;12.59;76.56;96299.31;4978990;28;20046;-75
2023/03/24 07:31:11;;;;;;;2.95;2.25;;;;;;;12.64;76.39;96302.91;4992344;28;20047;-75
2023/03/24 07:33:41;;;;;;;5.03;2.80;;;;;;;12.74;75.37;96311.13;4986959;28;20142;-74
2023/03/24 07:36:09;;;;;;;3.10;2.70;;;;;;;12.82;75.04;96318.75;4989943;28;20038;-74
2023/03/24 07:38:39;;;;;;;4.15;2.53;;;;;;;12.86;74.88;96325.28;4989164;28;20509;-74
2023/03/24 07:41:11;;;;;;;2.97;1.88;;;;;;;12.86;74.99;96329.81;4983698;28;20405;-75
2023/03/24 07:43:43;;;;;;;;;;;;;;;12.92;75.07;96334.19;4988144;28;20043;-74
2023/03/24 07:46:32;;;;;;;4.07;2.22;;;;;;;12.96;75.58;96326.50;4981842;28;19922;-74
2023/03/24 07:49:02;;;;;;;2.80;1.77;;;;;;;12.93;76.10;96318.94;4983241;28;20039;-73
2023/03/24 07:51:50;;;;;;;5.05;2.08;;;;;;;13.03;75.79;96322.63;4982556;28;20043;-74
2023/03/24 07:54:23;;;;;;;5.53;2.60;;;;;;;13.08;76.32;96321.91;4985814;28;20048;-74
2023/03/24 07:56:52;;;;;;;6.13;2.60;;;;;;;13.14;75.79;96326.31;4983682;28;20051;-74
2023/03/24 07:59:20;;;;;;;4.40;2.65;;;;;;;13.19;75.73;96319.16;4985963;28;20042;-74
2023/03/24 08:01:50;;;;;;;4.60;3.15;;;;;;;13.24;76.91;96331.84;4977553;28;20106;-74
2023/03/24 08:04:58;;;;;;;3.40;2.28;;;;;;;13.14;77.52;96331.66;4979974;28;20079;-73
2023/03/24 08:07:52;;;;;;;4.63;2.45;;;;;;;13.13;77.50;96328.16;4992175;28;20050;-73
2023/03/24 08:10:22;;;;;;;4.57;2.35;;;;;;;13.04;78.30;96326.91;4994664;28;20520;-74
2023/03/24 08:12:50;;;;;;;3.50;2.67;;;;;;;12.99;79.32;96329.50;4977594;28;20287;-74
2023/03/24 08:15:18;;;;;;;4.00;3.03;;;;;;;12.98;78.70;96335.13;4968109;28;20071;-74
2023/03/24 08:17:47;;;;;;;4.78;3.20;;;;;;;12.94;79.43;96342.00;4968228;28;20130;-74
2023/03/24 08:20:17;;;;;;;3.25;2.60;;;;;;;12.87;79.80;96342.94;4966780;28;20125;-73
2023/03/24 08:22:48;;;;;;;5.07;3.20;;;;;;;12.86;79.93;96338.66;4968991;28;20047;-75
2023/03/24 08:25:18;;;;;;;3.08;2.30;;;;;;;12.87;80.11;96342.16;4983193;28;20542;-75
2023/03/24 08:27:46;;;;;;;3.58;2.70;;;;;;;12.82;80.13;96345.53;4969342;28;20046;-74
2023/03/24 08:30:16;;;;;;;2.58;2.35;;;;;;;12.90;80.25;96338.16;4969591;28;20557;-74
2023/03/24 08:32:45;;;;;;;2.60;2.13;;;;;;;12.83;79.87;96335.66;4963902;28;20117;-75
2023/03/24 08:35:13;;;;;;;6.03;2.65;;;;;;;12.84;80.03;96321.19;4975576;28;20117;-75
2023/03/24 08:37:44;;;;;;;2.03;1.63;;;;;;;12.84;79.93;96348.78;4976008;28;20454;-74
2023/03/24 08:40:13;;;;;;;1.50;1.35;;;;;;;12.81;80.42;96345.78;4976316;28;20043;-74
2023/03/24 08:42:41;;;;;;;6.53;4.32;;;;;;;12.85;80.32;96349.59;4985405;28;20043;-75
2023/03/24 08:45:11;;;;;;;1.73;1.33;;;;;;;12.90;79.75;96343.50;4968429;28;20376;-75
2023/03/24 08:47:39;;;;;;;3.35;2.53;;;;;;;12.86;80.26;96351.25;4975342;28;20034;-74
2023/03/24 08:50:08;;;;;;;4.47;1.95;;;;;;;12.90;79.90;96338.16;4973502;28;20386;-74
2023/03/24 08:52:36;;;;;;;3.17;2.15;;;;;;;12.95;79.55;96333.72;4991076;28;20174;-76
2023/03/24 08:55:06;;;;;;;2.83;1.90;;;;;;;13.04;79.70;96336.81;4974981;28;20473;-75
2023/03/24 08:57:34;;;;;;;2.83;2.22;;;;;;;13.08;79.58;96335.28;4965048;28;20051;-75
2023/03/24 09:00:07;;;;;;;2.15;1.83;;;;;;;13.12;78.61;96309.63;4973348;28;20054;-75
2023/03/24 09:02:35;;;;;;;3.50;1.90;;;;;;;13.18;78.35;96314.06;4968060;28;20043;-76
2023/03/24 09:05:03;;;;;;;2.90;1.60;;;;;;;13.18;77.65;96306.03;4969417;28;20482;-74
2023/03/24 09:07:30;;;;;;;1.75;1.10;;;;;;;13.22;77.46;96325.91;4965216;28;20046;-75
2023/03/24 09:09:58;;;;;;;1.33;1.20;;;;;;;13.23;77.22;96327.53;4965738;28;20055;-76
2023/03/24 09:12:27;;;;;;;2.85;1.30;;;;;;;13.24;77.24;96323.81;4979323;28;20043;-75
2023/03/24 09:14:54;;;;;;;2.67;0.90;;;;;;;13.30;76.94;96332.72;4972512;28;20105;-74
2023/03/24 09:17:22;;;;;;;1.63;1.30;;;;;;;13.31;76.39;96329.00;4971299;28;20081;-73
2023/03/24 09:19:50;;;;;;;3.42;0.80;;;;;;;13.33;75.83;96330.38;4970786;28;20121;-74
2023/03/24 09:22:17;;;;;;;1.10;1.00;;;;;;;13.34;75.78;96315.94;4987554;28;20039;-75
2023/03/24 09:24:47;;;;;;;1.13;0.98;;;;;;;13.39;75.97;96313.31;4969585;28;20047;-74
2023/03/24 09:27:15;;;;;;;1.67;1.20;;;;;;;13.46;76.01;96314.00;4968589;28;20145;-74
2023/03/24 09:29:44;;;;;;;1.80;1.50;;;;;;;13.56;75.12;96316.81;4965635;28;20047;-75
2023/03/24 09:32:12;;;;;;;2.03;1.20;;;;;;;13.60;75.04;96309.91;4963326;28;20041;-74
2023/03/24 09:34:40;;;;;;;1.58;0.90;;;;;;;13.69;74.26;96314.88;4963322;28;20051;-74
2023/03/24 09:37:07;;;;;;;1.05;0.88;;;;;;;13.67;73.76;96308.94;4962923;28;20569;-75
2023/03/24 09:39:35;;;;;;;2.40;1.00;;;;;;;13.66;74.43;96328.75;4969275;28;20092;-75
2023/03/24 09:42:04;;;;;;;1.15;0.82;;;;;;;13.73;74.35;96322.16;4961432;28;20062;-74
2023/03/24 09:44:34;;;;;;;2.00;1.60;;;;;;;13.86;73.80;96321.00;4963169;28;20046;-74
2023/03/24 09:47:05;;;;;;;1.48;1.05;;;;;;;13.88;72.33;96313.53;4959728;28;20058;-74
2023/03/24 09:49:36;;;;;;;0.88;0.70;;;;;;;13.83;72.21;96326.84;4962300;28;20136;-74
2023/03/24 09:52:05;;;;;;;1.85;1.10;;;;;;;13.81;72.68;96318.25;4960726;28;20047;-73
2023/03/24 09:54:38;;;;;;;1.58;1.25;;;;;;;13.80;73.11;96330.06;4960976;28;20055;-75
2023/03/24 09:57:11;;;;;;;1.77;1.10;;;;;;;13.82;72.77;96335.97;4960488;28;20054;-74
2023/03/24 09:59:39;;;;;;;0.70;0.60;;;;;;;13.86;72.88;96337.91;4960419;28;20070;-74
2023/03/24 10:02:12;;;;;;;2.13;1.08;;;;;;;13.88;72.16;96343.03;4964385;28;20043;-74
2023/03/24 10:04:40;;;;;;;1.20;0.85;;;;;;;13.80;72.57;96328.19;4960553;28;20053;-74
2023/03/24 10:07:09;;;;;;;1.90;1.00;;;;;;;13.72;72.94;96331.25;4960229;28;20058;-74
2023/03/24 10:09:37;;;;;;;2.05;1.13;;;;;;;13.76;72.63;96334.28;4962323;28;20576;-74
2023/03/24 10:12:25;;;;;;;1.55;1.20;;;;;;;13.80;72.76;96324.69;4962976;28;20101;-74
2023/03/24 10:15:05;;;;;;;1.70;1.30;;;;;;;13.79;73.06;96315.00;4958380;28;20063;-74
2023/03/24 10:17:41;;;;;;;1.35;0.98;;;;;;;13.85;72.55;96316.69;4960859;28;20418;-74
2023/03/24 10:20:17;;;;;;;1.55;0.93;;;;;;;13.85;72.92;96317.50;4960989;28;20465;-74
2023/03/24 10:22:49;;;;;;;0.88;0.82;;;;;;;13.87;72.76;96323.44;4961687;28;20050;-73
2023/03/24 10:25:21;;;;;;;1.17;1.05;;;;;;;13.91;72.63;96329.16;4959718;28;20090;-73
2023/03/24 10:27:51;;;;;;;1.73;1.15;;;;;;;13.83;73.02;96308.09;4959603;28;20075;-74
2023/03/24 10:30:21;;;;;;;0.93;0.80;;;;;;;13.72;73.24;96322.41;4959617;28;20066;-74
2023/03/24 10:32:50;;;;;;;1.88;1.33;;;;;;;13.71;73.35;96331.50;4965748;28;20055;-74
2023/03/24 10:35:21;;;;;;;2.13;1.25;;;;;;;13.70;73.81;96335.25;4965701;28;20081;-74
2023/03/24 10:37:50;;;;;;;2.13;1.05;;;;;;;13.65;74.18;96335.16;4970243;28;20132;-74
2023/03/24 10:40:21;;;;;;;2.33;1.02;;;;;;;13.67;74.39;96325.84;4969652;28;20086;-73
2023/03/24 10:42:49;;;;;;;1.33;1.10;;;;;;;13.67;74.59;96333.06;4975072;28;20043;-73
2023/03/24 10:45:36;;;;;;;1.73;1.30;;;;;;;13.64;74.61;96320.13;4964001;28;20402;-74
2023/03/24 10:48:06;;;;;;;1.77;1.15;;;;;;;13.57;75.54;96315.78;4971109;28;20066;-75
2023/03/24 10:50:34;;;;;;;1.95;1.45;;;;;;;13.59;75.82;96331.63;4965106;28;20050;-75
2023/03/24 10:53:08;;;;;;;4.28;1.17;;;;;;;13.50;76.82;96336.56;4967509;28;20050;-75
2023/03/24 10:55:38;;;;;;;9.38;5.95;;;;;;;13.47;77.77;96336.25;4969481;28;20049;-74
2023/03/24 10:58:17;;;;;;;1.40;1.10;;;;;;;13.41;77.83;96335.34;4963792;28;20043;-74
2023/03/24 11:00:44;;;;;;;;;;;;;;;13.43;77.66;96330.53;4961054;28;20043;-74
2023/03/24 11:03:16;;;;;;;1.52;0.98;;;;;;;13.46;77.18;96323.91;4968427;28;19926;-73
2023/03/24 11:05:45;;;;;;;1.38;1.10;;;;;;;13.48;77.31;96327.97;4960592;28;20106;-74
2023/03/24 11:08:25;;;;;;;2.67;1.05;;;;;;;13.52;77.07;96328.28;4968028;28;20399;-74
2023/03/24 11:10:52;;;;;;;1.48;1.20;;;;;;;13.54;77.25;96328.84;4970899;28;20098;-74
2023/03/24 11:13:28;;;;;;;2.28;1.80;;;;;;;13.57;77.15;96321.13;4978888;28;20445;-74
2023/03/24 11:16:04;;;;;;;1.80;0.93;;;;;;;13.50;77.86;96301.69;4965463;28;20101;-73
2023/03/24 11:18:33;;;;;;;1.75;1.30;;;;;;;13.47;78.34;96302.22;4964106;28;20043;-73
2023/03/24 11:21:03;;;;;;;1.45;1.27;;;;;;;13.50;78.43;96314.28;4966398;28;20118;-74
2023/03/24 11:23:32;;;;;;;1.52;1.42;;;;;;;13.54;78.06;96315.44;4967911;28;20527;-74
2023/03/24 11:26:06;;;;;;;2.05;1.60;;;;;;;13.56;77.98;96318.69;4965485;28;20478;-74
2023/03/24 11:28:37;;;;;;;1.83;1.30;;;;;;;13.50;78.16;96306.25;4960449;28;20055;-74
2023/03/24 11:31:07;;;;;;;2.95;1.33;;;;;;;13.50;78.69;96307.06;4965075;28;20051;-73
2023/03/24 11:33:46;;;;;;;2.33;1.38;;;;;;;13.56;78.39;96300.75;4965474;28;20047;-73
2023/03/24 11:36:42;;;;;;;3.38;1.20;;;;;;;13.56;78.15;96300.75;4961654;28;20388;-74
2023/03/24 11:39:17;;;;;;;1.23;1.10;;;;;;;13.56;77.82;96319.50;4958075;28;20082;-73
2023/03/24 11:42:01;;;;;;;1.70;1.35;;;;;;;13.57;78.10;96312.28;4958396;28;20109;-74
2023/03/24 11:44:32;;;;;;;2.50;2.30;;;;;;;13.62;78.15;96309.66;4975656;28;20418;-74
2023/03/24 11:47:03;;;;;;;1.77;1.35;;;;;;;13.56;77.82;96298.06;4956982;28;20054;-74
2023/03/24 11:49:35;;;;;;;3.42;2.17;;;;;;;13.56;78.18;96284.66;4970905;28;20042;-73
2023/03/24 11:52:04;;;;;;;2.92;1.42;;;;;;;13.60;78.04;96311.75;4976770;28;20050;-73
2023/03/24 11:54:34;;;;;;;3.08;1.50;;;;;;;13.60;77.67;96301.03;4978041;28;20043;-73
2023/03/24 11:57:04;;;;;;;2.35;1.40;;;;;;;13.60;77.35;96287.63;4983114;28;20051;-73
2023/03/24 11:59:37;;;;;;;3.80;1.63;;;;;;;13.64;77.35;96298.69;4969657;28;20051;-75
2023/03/24 12:02:13;;;;;;;2.25;1.60;;;;;;;13.68;77.45;96297.16;4965667;28;20047;-75
2023/03/24 12:04:59;;;;;;;1.70;1.15;;;;;;;13.66;77.69;96296.59;4978787;28;20047;-74
2023/03/24 12:07:55;;;;;;;1.75;1.48;;;;;;;13.68;77.90;96291.78;4970756;28;20054;-74
2023/03/24 12:10:28;;;;;;;2.22;1.10;;;;;;;13.70;77.44;96281.63;4982032;28;20043;-74
2023/03/24 12:13:01;;;;;;;1.40;1.13;;;;;;;13.76;77.10;96296.72;4966238;28;20110;-73
2023/03/24 12:15:50;;;;;;;1.30;0.90;;;;;;;13.79;76.81;96296.25;4962878;28;20051;-74
2023/03/24 12:18:30;;;;;;;1.92;1.83;;;;;;;13.81;76.55;96280.69;4964024;28;20440;-74
2023/03/24 12:21:03;;;;;;;1.83;1.52;;;;;;;13.82;76.62;96282.31;4968737;28;20061;-74
2023/03/24 12:23:36;;;;;;;1.40;0.90;;;;;;;13.86;76.91;96273.53;4969970;28;20039;-74
2023/03/24 12:26:10;;;;;;;2.03;1.08;;;;;;;13.92;76.25;96269.84;4970542;28;20502;-74
2023/03/24 12:28:47;;;;;;;1.55;1.13;;;;;;;13.95;75.98;96271.25;4968774;28;20042;-74
2023/03/24 12:31:33;;;;;;;2.35;1.42;;;;;;;14.12;75.59;96273.88;4967822;28;20047;-74
2023/03/24 12:34:10;;;;;;;1.42;1.13;;;;;;;14.24;74.88;96261.94;4969717;28;20038;-74
2023/03/24 12:36:46;;;;;;;2.70;1.38;;;;;;;14.36;74.26;96272.53;4968810;28;20360;-73
2023/03/24 12:39:16;;;;;;;2.70;1.20;;;;;;;14.53;73.97;96269.84;4975337;28;20043;-74
2023/03/24 12:41:56;;;;;;;1.27;1.17;;;;;;;14.61;73.68;96255.94;4974430;28;20051;-73
2023/03/24 12:44:39;;;;;;;1.02;0.90;;;;;;;14.45;73.73;96270.25;4974185;28;20046;-73
2023/03/24 12:47:15;;;;;;;2.72;1.42;;;;;;;14.46;73.80;96250.41;4972407;28;20446;-74
2023/03/24 12:49:52;;;;;;;1.50;0.98;;;;;;;14.36;74.02;96267.19;4978706;28;20094;-74
2023/03/24 12:52:32;;;;;;;2.00;1.15;;;;;;;14.34;73.50;96263.94;4980135;28;20047;-74
2023/03/24 12:55:05;;;;;;;4.28;1.10;;;;;;;14.32;73.57;96263.38;4975706;28;20114;-74
2023/03/24 12:57:36;;;;;;;1.52;1.02;;;;;;;14.34;73.38;96259.38;4977733;28;20047;-74
2023/03/24 13:00:10;;;;;;;0.68;0.68;;;;;;;14.30;73.34;96260.94;4981793;28;20077;-74
2023/03/24 13:02:39;;;;;;;1.33;1.23;;;;;;;14.33;73.59;96281.09;5001001;22;20062;-74
2023/03/24 13:05:13;;;;;;;1.17;0.90;;;;;;;14.34;73.37;96278.16;5030396;28;20128;-74
2023/03/24 13:07:46;;;;;;;2.03;1.00;;;;;;;14.35;73.60;96260.19;5033285;28;20052;-74
2023/03/24 13:10:16;;;;;;;1.08;0.82;;;;;;;14.24;75.62;96271.88;5033077;28;20053;-74
2023/03/24 13:12:49;;;;;;;2.75;1.50;;;;;;;14.22;76.55;96279.38;5034747;28;20045;-74
2023/03/24 13:15:18;;;;;;;2.20;1.23;;;;;;;14.14;76.76;96272.56;5031258;28;20037;-74
2023/03/24 13:17:49;;;;;;;4.07;1.90;;;;;;;14.04;77.15;96271.63;5023144;28;20076;-74
2023/03/24 13:20:23;;;;;;;1.50;1.30;;;;;;;14.07;76.77;96284.53;5045843;28;20053;-75
2023/03/24 13:22:52;;;;;;;1.13;1.02;;;;;;;14.06;75.92;96329.34;5023587;28;20404;-75
2023/03/24 13:25:29;;;;;;;9.63;1.13;;;;;;;13.54;78.22;96340.38;5031232;28;20076;-74
2023/03/24 13:28:00;;;;;;;3.05;1.17;;;;;;;12.39;82.66;96350.56;5028017;28;20095;-75
2023/03/24 13:30:31;;;;;;;1.90;0.50;;;;;;;12.39;81.02;96346.03;5037451;28;20044;-74
2023/03/24 13:33:08;;;;;;;1.60;0.40;;;;;;;11.89;82.45;96353.78;5032865;28;20054;-74
2023/03/24 13:35:59;;;;;;;0.40;0.40;;;;;;;11.53;84.07;96354.78;5036779;28;20061;-74
2023/03/24 13:38:33;;;;;;;0.68;0.45;;;;;;;11.45;84.12;96365.00;5038726;28;20045;-74
2023/03/24 13:41:04;;;;;;;3.38;0.82;;;;;;;11.32;85.10;96366.03;5036092;28;20053;-74
2023/03/24 13:43:34;;;;;;;1.08;0.40;;;;;;;11.05;85.35;96365.63;5032780;28;20049;-74
2023/03/24 13:46:02;;;;;;;0.88;0.60;;;;;;;10.93;86.23;96362.09;5029725;28;20053;-74
2023/03/24 13:48:33;;;;;;;0.63;0.47;;;;;;;11.00;86.23;96374.31;5027984;28;20054;-74
2023/03/24 13:51:03;;;;;;;1.55;0.45;;;;;;;10.92;86.62;96382.63;5032254;28;20049;-74
2023/03/24 13:53:38;;;;;;;0.88;0.75;;;;;;;11.04;87.18;96386.16;5027733;28;20045;-74
2023/03/24 13:56:08;;;;;;;0.60;0.60;;;;;;;11.10;85.63;96395.16;5029535;28;20092;-74
2023/03/24 13:58:47;;;;;;;2.92;0.98;;;;;;;11.17;85.08;96395.84;5029118;28;20427;-74
2023/03/24 14:01:18;;;;;;;0.50;0.50;;;;;;;11.15;85.16;96395.25;5031284;28;20042;-74
2023/03/24 14:04:27;;;;;;;1.00;0.75;;;;;;;11.15;85.37;96400.59;5022995;28;20038;-74
2023/03/24 14:06:56;;;;;;;0.45;0.45;;;;;;;11.21;84.43;96396.22;5027942;28;20511;-74
2023/03/24 14:09:25;;;;;;;0.98;0.60;;;;;;;11.20;83.54;96386.56;5023169;28;20067;-74
2023/03/24 14:12:17;;;;;;;1.20;0.75;;;;;;;11.25;84.38;96387.50;5031175;28;20042;-75
2023/03/24 14:15:18;;;;;;;2.92;0.90;;;;;;;11.29;84.04;96393.22;5027227;28;20037;-74
2023/03/24 14:17:48;;;;;;;2.40;0.80;;;;;;;11.40;84.12;96387.09;4990630;28;20054;-75
2023/03/24 14:20:32;;;;;;;1.63;0.80;;;;;;;11.46;84.07;96380.00;4987045;28;20133;-75
2023/03/24 14:23:00;;;;;;;0.75;0.63;;;;;;;11.50;81.77;96389.19;5012873;28;20501;-75
2023/03/24 14:25:29;;;;;;;1.30;0.70;;;;;;;11.51;82.84;96380.13;5028136;28;20038;-75
2023/03/24 14:28:10;;;;;;;1.20;0.65;;;;;;;11.64;82.56;96374.56;5029764;28;20076;-75
2023/03/24 14:30:57;;;;;;;0.50;0.40;;;;;;;11.59;80.01;96363.75;5024525;28;20045;-74
2023/03/24 14:33:26;;;;;;;0.47;0.47;;;;;;;11.57;81.06;96363.16;5024614;28;20041;-73
2023/03/24 14:36:00;;;;;;;1.60;0.50;;;;;;;11.61;80.48;96364.34;5046745;28;20037;-74
2023/03/24 14:38:28;;;;;;;0.90;0.70;;;;;;;11.61;78.87;96378.53;5025008;28;20416;-75
2023/03/24 14:40:57;;;;;;;0.73;0.65;;;;;;;11.62;78.77;96365.97;5027861;28;20492;-74
2023/03/24 14:43:27;;;;;;;0.63;0.50;;;;;;;11.64;77.76;96355.84;5024302;28;20045;-74
2023/03/24 14:46:00;;;;;;;0.73;0.52;;;;;;;11.68;78.08;96357.00;5024543;28;20046;-74
2023/03/24 14:48:40;;;;;;;1.48;0.80;;;;;;;11.75;78.92;96357.75;5023821;28;20068;-74
2023/03/24 14:51:35;;;;;;;1.67;0.68;;;;;;;11.76;78.48;96354.84;5024242;28;20041;-74
2023/03/24 14:54:05;;;;;;;1.00;0.50;;;;;;;11.89;77.25;96363.66;5027016;28;20060;-74
2023/03/24 14:56:36;;;;;;;2.13;0.55;;;;;;;11.96;77.23;96361.69;5031619;28;20075;-74
2023/03/24 14:59:09;;;;;;;1.30;0.70;;;;;;;11.91;76.99;96357.06;5030716;28;20049;-74
2023/03/24 15:01:37;;;;;;;1.77;0.70;;;;;;;11.91;76.91;96351.72;5031060;28;20052;-75
2023/03/24 15:04:08;;;;;;;1.58;0.68;;;;;;;11.89;76.50;96353.78;5029704;28;20045;-75
2023/03/24 15:06:45;;;;;;;0.82;0.50;;;;;;;11.89;76.55;96350.31;5044894;28;20041;-74
2023/03/24 15:09:15;;;;;;;2.05;0.40;;;;;;;11.91;76.57;96353.56;5025909;28;20041;-75
2023/03/24 15:11:43;;;;;;;1.35;0.75;;;;;;;11.86;76.68;96359.59;5028537;28;20045;-74
2023/03/24 15:14:19;;;;;;;0.80;0.50;;;;;;;11.88;75.85;96346.00;5024612;28;20562;-75
2023/03/24 15:16:52;;;;;;;2.17;0.85;;;;;;;11.91;76.42;96338.34;5026135;28;20087;-74
2023/03/24 15:19:22;;;;;;;0.80;0.63;;;;;;;11.94;76.10;96339.72;5020297;28;20057;-74
2023/03/24 15:21:57;;;;;;;2.10;0.70;;;;;;;11.92;75.55;96350.66;5025677;28;20056;-75
2023/03/24 15:24:28;;;;;;;0.70;0.65;;;;;;;11.89;73.87;96356.47;5048945;28;20042;-74
2023/03/24 15:27:14;;;;;;;1.50;0.65;;;;;;;11.84;73.10;96340.28;5030295;28;20091;-75
2023/03/24 15:29:43;;;;;;;2.35;0.90;;;;;;;11.90;72.50;96336.72;5033124;28;20095;-74
2023/03/24 15:32:16;;;;;;;0.93;0.52;;;;;;;11.87;72.44;96345.19;5029476;28;20056;-75
2023/03/24 15:34:49;;;;;;;1.10;0.80;;;;;;;11.87;74.02;96339.84;5028440;28;20489;-74
2023/03/24 15:37:22;;;;;;;1.00;0.43;;;;;;;11.83;73.50;96343.22;5034807;28;20049;-74
2023/03/24 15:39:51;;;;;;;0.63;0.50;;;;;;;11.83;73.85;96335.22;5034795;28;20075;-74
2023/03/24 15:42:28;;;;;;;2.55;0.98;;;;;;;11.83;72.72;96343.22;5031124;28;20041;-74
2023/03/24 15:45:14;;;;;;;1.75;1.02;;;;;;;11.81;73.11;96346.13;5032322;28;20046;-75
2023/03/24 15:47:41;;;;;;;0.93;0.55;;;;;;;11.82;72.23;96347.75;5039235;28;20095;-74
2023/03/24 15:50:28;;;;;;;1.15;0.82;;;;;;;11.83;73.43;96333.34;5038426;28;20064;-74
2023/03/24 15:53:01;;;;;;;1.70;0.70;;;;;;;11.94;73.48;96342.41;5032291;28;20041;-75
2023/03/24 15:55:32;;;;;;;1.48;0.85;;;;;;;11.99;73.70;96353.19;5031682;28;20061;-75
2023/03/24 15:58:03;;;;;;;1.55;0.95;;;;;;;11.98;72.62;96359.59;5040468;28;20116;-75
2023/03/24 16:00:36;;;;;;;1.25;0.70;;;;;;;12.05;71.45;96369.13;5045162;28;20059;-74
2023/03/24 16:03:05;;;;;;;0.82;0.52;;;;;;;12.00;66.69;96369.03;5042269;28;20048;-73
2023/03/24 16:05:34;;;;;;;1.05;0.73;;;;;;;11.93;64.88;96356.81;5035253;28;20034;-74
2023/03/24 16:08:05;;;;;;;2.00;1.20;;;;;;;11.90;65.05;96362.63;5038271;28;20099;-73
2023/03/24 16:10:38;;;;;;;1.25;0.85;;;;;;;11.97;64.90;96368.66;5034704;28;20053;-74
2023/03/24 16:13:13;;;;;;;0.85;0.50;;;;;;;11.82;64.13;96366.47;5041112;28;20646;-73
2023/03/24 16:15:42;;;;;;;1.25;0.70;;;;;;;11.76;64.33;96364.72;5043171;28;20053;-74
2023/03/24 16:18:13;;;;;;;2.63;1.17;;;;;;;11.76;63.79;96373.53;5044120;28;20041;-76
2023/03/24 16:20:41;;;;;;;1.20;0.80;;;;;;;11.63;63.88;96373.72;5036523;28;20041;-73
2023/03/24 16:23:10;;;;;;;1.45;0.80;;;;;;;11.55;64.44;96382.09;5033226;28;20076;-74
2023/03/24 16:25:38;;;;;;;1.38;0.60;;;;;;;11.53;64.72;96386.84;5033881;28;20037;-73
2023/03/24 16:28:07;;;;;;;1.80;1.10;;;;;;;11.51;65.01;96391.63;5030152;28;20103;-74
2023/03/24 16:30:39;;;;;;;2.78;1.05;;;;;;;11.58;65.51;96400.34;5032743;28;20515;-73
2023/03/24 16:33:07;;;;;;;3.45;1.48;;;;;;;11.62;65.92;96406.06;5035122;28;20049;-73
2023/03/24 16:35:35;;;;;;;2.35;0.80;;;;;;;11.61;65.86;96407.09;5036067;28;20041;-73
2023/03/24 16:38:03;;;;;;;3.10;0.90;;;;;;;11.51;65.95;96405.00;5035504;28;20045;-73
2023/03/24 16:40:35;;;;;;;4.03;1.02;;;;;;;11.49;66.34;96407.09;5033510;28;20056;-73
2023/03/24 16:43:03;;;;;;;;;;;;;;;11.46;66.79;96393.34;5032228;28;20104;-73
2023/03/24 16:45:31;;;;;;;2.97;1.13;;;;;;;11.56;66.63;96390.94;5023955;28;19921;-73
2023/03/24 16:47:59;;;;;;;2.22;0.93;;;;;;;11.46;66.85;96386.16;5032671;28;20167;-74
2023/03/24 16:50:31;;;;;;;5.05;1.58;;;;;;;11.44;67.63;96398.91;5032625;28;20052;-73
2023/03/24 16:52:59;;;;;;;2.10;0.85;;;;;;;11.43;67.64;96399.16;5033851;28;20397;-73
2023/03/24 16:55:27;;;;;;;1.80;1.25;;;;;;;11.33;68.29;96394.38;5034655;28;20044;-73
2023/03/24 16:57:56;;;;;;;1.95;1.00;;;;;;;11.30;68.35;96401.00;5028429;28;20096;-74
2023/03/24 17:00:23;;;;;;;3.00;0.70;;;;;;;11.24;69.34;96391.22;5031059;28;20455;-73
2023/03/24 17:02:52;;;;;;;3.20;1.35;;;;;;;11.25;69.85;96384.84;5030075;28;20382;-73
2023/03/24 17:05:23;;;;;;;1.38;1.08;;;;;;;11.19;70.34;96391.09;5034299;28;20068;-73
2023/03/24 17:07:51;;;;;;;1.65;0.88;;;;;;;11.20;70.78;96405.28;5035498;28;20053;-73
2023/03/24 17:10:18;;;;;;;2.20;0.88;;;;;;;11.13;71.06;96396.53;5032272;28;20045;-74
2023/03/24 17:12:47;;;;;;;2.78;1.35;;;;;;;11.10;71.30;96400.47;5034260;28;20408;-74
2023/03/24 17:15:20;;;;;;;2.17;1.10;;;;;;;11.08;71.43;96410.56;5032302;28;20095;-73
2023/03/24 17:17:48;;;;;;;1.65;1.13;;;;;;;11.03;71.81;96416.56;5030151;28;20049;-74
2023/03/24 17:20:16;;;;;;;1.38;1.05;;;;;;;11.05;71.82;96424.38;5032099;28;20042;-74
2023/03/24 17:22:45;;;;;;;1.45;1.23;;;;;;;11.03;72.19;96435.25;5032352;28;20047;-74
2023/03/24 17:25:14;;;;;;;2.05;1.42;;;;;;;11.01;72.29;96429.34;5032599;28;20053;-74
2023/03/24 17:27:42;;;;;;;2.20;1.23;;;;;;;11.01;72.54;96431.19;5032000;28;20072;-75
2023/03/24 17:30:14;;;;;;;3.45;1.58;;;;;;;11.06;72.62;96439.34;5033853;28;20089;-75
2023/03/24 17:32:43;;;;;;;;;;;;;;;11.02;72.33;96425.63;5034097;28;20037;-74
2023/03/24 17:35:12;;;;;;;2.28;1.27;;;;;;;11.00;72.89;96426.91;5031299;28;20295;-74
2023/03/24 17:37:40;;;;;;;3.65;1.88;;;;;;;11.02;72.85;96432.81;5034204;28;20052;-74
2023/03/24 17:40:10;;;;;;;2.55;1.48;;;;;;;11.01;73.09;96440.00;5033202;28;20562;-75
2023/03/24 17:42:40;;;;;;;2.45;1.60;;;;;;;10.87;73.38;96424.41;5031838;28;20408;-74
2023/03/24 17:45:09;;;;;;;4.43;1.60;;;;;;;10.90;73.89;96427.44;5030742;28;20103;-73
2023/03/24 17:47:37;;;;;;;2.95;1.90;;;;;;;10.90;73.69;96430.09;5030192;28;20046;-74
2023/03/24 17:50:08;;;;;;;3.47;1.88;;;;;;;10.86;73.89;96423.59;5031179;28;20493;-75
2023/03/24 17:52:36;;;;;;;2.58;1.73;;;;;;;10.98;73.77;96424.47;5029754;28;20570;-74
2023/03/24 17:55:05;;;;;;;3.10;2.15;;;;;;;10.85;74.51;96426.47;5032446;28;20198;-75
2023/03/24 17:57:32;;;;;;;2.88;2.13;;;;;;;10.76;74.94;96419.81;5031656;28;20405;-75
2023/03/24 18:00:00;;;;;;;4.47;2.28;;;;;;;10.72;75.27;96414.13;5027505;28;20275;-74
2023/03/24 18:02:34;;;;;;;6.80;3.13;;;;;;;10.78;75.74;96428.44;5042026;28;20045;-74
2023/03/24 18:05:02;;;;;;;4.22;2.83;;;;;;;10.79;75.67;96428.22;5036595;28;20041;-74
2023/03/24 18:07:31;;;;;;;4.68;2.50;;;;;;;10.75;75.99;96419.00;5042833;28;20116;-74
2023/03/24 18:09:59;;;;;;;2.08;1.95;;;;;;;10.68;76.59;96414.81;5025291;28;20456;-74
2023/03/24 18:12:27;;;;;;;2.40;1.30;;;;;;;10.65;77.42;96411.53;5033145;28;20045;-74
2023/03/24 18:14:54;;;;;;;2.53;1.77;;;;;;;10.60;77.35;96414.06;5032645;28;20041;-73
2023/03/24 18:17:22;;;;;;;2.20;1.52;;;;;;;10.56;77.71;96418.22;5031908;28;20056;-74
2023/03/24 18:19:50;;;;;;;2.65;1.50;;;;;;;10.57;78.08;96414.53;5034460;28;20052;-74
2023/03/24 18:22:17;;;;;;;5.57;1.83;;;;;;;10.40;78.82;96429.47;5034544;28;20068;-74
2023/03/24 18:24:46;;;;;;;2.17;1.38;;;;;;;10.36;78.97;96430.97;5036469;28;20041;-75
2023/03/24 18:27:14;;;;;;;1.85;1.33;;;;;;;10.26;79.93;96425.34;5033806;28;20057;-74
2023/03/24 18:29:42;;;;;;;2.55;1.38;;;;;;;10.31;79.71;96428.13;5028078;28;20060;-74
2023/03/24 18:32:09;;;;;;;2.90;1.80;;;;;;;10.26;80.02;96430.69;5036326;28;20103;-74
2023/03/24 18:34:43;;;;;;;1.98;1.63;;;;;;;10.21;80.31;96435.84;5032761;28;20427;-74
2023/03/24 18:37:12;;;;;;;4.05;1.38;;;;;;;10.22;80.32;96429.47;5032698;28;20103;-74
2023/03/24 18:39:40;;;;;;;2.83;1.52;;;;;;;10.23;80.34;96436.44;5036603;28;20049;-74
2023/03/24 18:42:09;;;;;;;3.58;1.60;;;;;;;10.18;80.39;96431.75;5036153;28;20054;-74
2023/03/24 18:44:37;;;;;;;2.42;1.30;;;;;;;10.16;80.78;96439.16;5027053;28;20555;-75
2023/03/24 18:47:05;;;;;;;1.90;1.30;;;;;;;10.20;80.44;96442.19;5031220;28;20050;-74
2023/03/24 18:49:32;;;;;;;4.40;1.60;;;;;;;10.17;80.66;96453.31;5035238;28;20103;-74
2023/03/24 18:52:00;;;;;;;2.42;1.65;;;;;;;10.11;80.95;96452.31;5031701;28;20060;-74